< < Back
Terminal Aerodrome Forecast


Current Version              Previous Versions:   1  2  3  4  5  6  7  8  9  

Terminal Aerodrome Forecast

462
FTUS42 KFFC 271125
TAFPDK
TAF
KPDK 271125Z 2712/2812 35005KT P6SM OVC012
     FM271500 35010KT P6SM SCT045 SCT200
     FM280200 34006KT P6SM SCT250
     FM280600 03005KT P6SM BKN120=

Latest METAR

831
SAUS70 KWBC 280600 RRA
MTRPDK
METAR KPDK 280553Z AUTO 01003KT 10SM CLR 11/06 A2988 RMK AO2 SLP114
T01060056 10167 20106 56004


USA.gov is the U.S. government's official web portal to all federal, state and local government web resources and services.